Time;durP1;ratioP1;P1;durP2;ratioP2;P2;SDS_P1;SDS_P2;PMS_P1;PMS_P2;Temp;Humidity;BMP_temperature;BMP_pressure;BME280_temperature;BME280_humidity;BME280_pressure;Samples;Min_cycle;Max_cycle;Signal;HPM_P1;HPM_P2
2022/06/19 00:01:29;;;;;;;7.57;5.43;;;24.70;75.60;;;;;;5066498;28;20032;-67
2022/06/19 00:03:56;;;;;;;9.30;5.22;;;24.60;75.70;;;;;;5070316;28;20039;-67
2022/06/19 00:06:23;;;;;;;8.32;5.53;;;24.60;75.90;;;;;;5062852;28;20503;-67
2022/06/19 00:08:49;;;;;;;6.80;4.88;;;24.60;76.00;;;;;;5051448;28;20488;-67
2022/06/19 00:11:18;;;;;;;6.35;4.85;;;24.50;76.10;;;;;;5052598;28;20083;-67
2022/06/19 00:13:45;;;;;;;10.68;5.22;;;24.50;76.30;;;;;;5051566;28;20083;-67
2022/06/19 00:16:11;;;;;;;10.07;5.50;;;24.50;76.40;;;;;;5054181;28;20036;-67
2022/06/19 00:18:38;;;;;;;9.70;5.57;;;24.40;76.40;;;;;;5051136;28;20124;-66
2022/06/19 00:21:05;;;;;;;8.25;5.68;;;24.40;76.60;;;;;;5060570;28;20399;-66
2022/06/19 00:23:31;;;;;;;7.72;5.43;;;24.40;77.00;;;;;;5071661;28;20530;-66
2022/06/19 00:25:57;;;;;;;10.23;5.97;;;24.30;76.90;;;;;;5068154;28;20032;-66
2022/06/19 00:28:23;;;;;;;7.88;5.43;;;24.30;77.10;;;;;;5057408;28;20376;-67
2022/06/19 00:30:49;;;;;;;7.28;5.50;;;24.30;77.30;;;;;;5062662;28;20380;-67
2022/06/19 00:33:14;;;;;;;7.32;5.05;;;24.30;77.40;;;;;;5071780;28;20024;-66
2022/06/19 00:35:40;;;;;;;8.07;5.60;;;24.30;77.50;;;;;;5064305;28;20040;-66
2022/06/19 00:38:05;;;;;;;6.38;5.05;;;24.20;77.60;;;;;;5071605;28;20025;-67
2022/06/19 00:40:32;;;;;;;9.48;5.57;;;24.20;77.80;;;;;;5067834;28;20028;-67
2022/06/19 00:42:57;;;;;;;8.07;5.25;;;24.20;77.90;;;;;;5055719;28;20079;-67
2022/06/19 00:45:49;;;;;;;9.38;5.22;;;24.10;78.00;;;;;;5059107;28;20024;-66
2022/06/19 00:48:21;;;;;;;8.23;5.75;;;24.10;78.00;;;;;;5064919;28;20112;-66
2022/06/19 00:50:50;;;;;;;7.22;5.38;;;24.10;78.30;;;;;;5059612;28;20036;-66
2022/06/19 00:53:20;;;;;;;8.27;5.40;;;24.00;78.30;;;;;;5055850;28;20041;-67
2022/06/19 00:55:49;;;;;;;7.15;5.40;;;24.00;78.40;;;;;;5069824;28;20021;-67
2022/06/19 00:58:29;;;;;;;9.25;5.70;;;24.00;78.70;;;;;;5069626;28;20134;-66
2022/06/19 01:00:59;;;;;;;10.93;5.68;;;24.00;78.70;;;;;;5062922;28;20044;-66
2022/06/19 01:03:47;;;;;;;7.93;5.45;;;23.90;78.80;;;;;;5068745;28;20029;-67
2022/06/19 01:06:13;;;;;;;7.95;5.63;;;23.90;78.90;;;;;;5055612;28;20047;-67
2022/06/19 01:08:39;;;;;;;7.20;5.57;;;23.80;79.00;;;;;;5066845;28;20049;-67
2022/06/19 01:11:06;;;;;;;11.55;5.60;;;23.90;79.30;;;;;;5064260;28;20060;-67
2022/06/19 01:13:33;;;;;;;8.57;5.57;;;23.80;79.40;;;;;;5061167;28;20025;-67
2022/06/19 01:16:01;;;;;;;8.05;5.20;;;23.80;79.60;;;;;;5055252;28;20103;-67
2022/06/19 01:18:27;;;;;;;7.22;5.07;;;23.80;79.70;;;;;;5063313;28;20025;-67
2022/06/19 01:20:59;;;;;;;6.05;4.93;;;23.70;79.80;;;;;;5062399;28;20044;-67
2022/06/19 01:23:47;;;;;;;6.47;5.10;;;23.70;80.00;;;;;;5058527;28;20056;-67
2022/06/19 01:26:14;;;;;;;10.18;5.65;;;23.60;80.00;;;;;;5055204;28;20044;-67
2022/06/19 01:28:55;;;;;;;6.78;5.40;;;23.60;80.30;;;;;;5055176;28;20025;-67
2022/06/19 01:31:30;;;;;;;11.57;5.20;;;23.50;80.60;;;;;;5058767;28;20028;-66
2022/06/19 01:34:26;;;;;;;7.18;5.22;;;23.50;80.80;;;;;;5063226;28;20047;-66
2022/06/19 01:36:49;;;;;;;10.23;5.43;;;23.50;80.90;;;;;;5069382;28;20028;-66
2022/06/19 01:39:15;;;;;;;7.18;5.30;;;23.40;81.00;;;;;;5065447;28;20052;-66
2022/06/19 01:41:41;;;;;;;9.40;5.57;;;23.40;81.20;;;;;;5063920;28;20033;-66
2022/06/19 01:44:06;;;;;;;9.48;5.55;;;23.40;81.40;;;;;;5066504;28;20025;-67
2022/06/19 01:46:32;;;;;;;8.25;6.07;;;23.30;81.50;;;;;;5071708;28;20025;-66
2022/06/19 01:48:58;;;;;;;6.35;5.07;;;23.30;82.30;;;;;;5063072;28;20029;-66
2022/06/19 01:51:23;;;;;;;8.80;5.70;;;23.20;81.90;;;;;;5073211;28;20103;-67
2022/06/19 01:54:01;;;;;;;9.82;5.80;;;23.20;82.10;;;;;;5059314;28;20025;-67
2022/06/19 01:56:29;;;;;;;7.63;4.70;;;23.20;82.40;;;;;;5066831;28;20028;-67
2022/06/19 01:59:01;;;;;;;7.47;5.70;;;23.20;82.40;;;;;;5062155;28;20033;-67
2022/06/19 02:01:26;;;;;;;6.13;5.28;;;23.20;82.50;;;;;;5054152;28;20045;-67
2022/06/19 02:03:56;;;;;;;9.70;5.47;;;23.20;82.60;;;;;;5059234;28;20029;-67
2022/06/19 02:06:27;;;;;;;7.60;5.60;;;23.20;82.70;;;;;;5066618;28;20033;-67
2022/06/19 02:08:54;;;;;;;7.00;5.18;;;23.10;82.80;;;;;;5071563;28;20072;-67
2022/06/19 02:11:20;;;;;;;6.32;5.70;;;23.10;82.90;;;;;;5074051;28;20577;-67
2022/06/19 02:13:48;;;;;;;7.78;5.22;;;23.10;83.00;;;;;;5059438;28;20033;-67
2022/06/19 02:16:16;;;;;;;7.22;5.88;;;23.10;83.10;;;;;;5053641;28;20520;-66
2022/06/19 02:18:46;;;;;;;7.72;5.78;;;23.00;83.30;;;;;;5058922;28;20033;-67
2022/06/19 02:21:20;;;;;;;8.95;5.30;;;23.00;83.50;;;;;;5053770;28;20033;-67
2022/06/19 02:23:47;;;;;;;8.30;5.33;;;23.00;83.70;;;;;;5054489;28;20036;-67
2022/06/19 02:26:13;;;;;;;8.68;5.18;;;23.00;83.70;;;;;;5053470;28;20628;-67
2022/06/19 02:28:41;;;;;;;6.78;5.70;;;23.00;83.80;;;;;;5057740;28;20032;-67
2022/06/19 02:31:07;;;;;;;9.85;5.75;;;23.00;84.00;;;;;;5073504;28;20106;-67
2022/06/19 02:33:39;;;;;;;6.97;5.53;;;22.90;84.00;;;;;;5064861;28;20487;-67
2022/06/19 02:36:36;;;;;;;6.45;5.82;;;22.90;84.20;;;;;;5069644;28;20384;-67
2022/06/19 02:39:23;;;;;;;6.70;5.65;;;22.90;84.20;;;;;;5056356;28;20057;-67
2022/06/19 02:42:02;;;;;;;6.50;5.55;;;22.90;84.40;;;;;;5053434;28;20044;-67
2022/06/19 02:44:35;;;;;;;8.43;5.90;;;22.80;84.50;;;;;;5056864;28;20037;-67
2022/06/19 02:47:01;;;;;;;10.05;5.75;;;22.80;84.70;;;;;;5052984;28;20032;-67
2022/06/19 02:49:26;;;;;;;9.18;5.70;;;22.80;84.80;;;;;;5056335;28;20484;-67
2022/06/19 02:51:52;;;;;;;6.72;5.82;;;22.80;84.90;;;;;;5053248;28;20444;-67
2022/06/19 02:54:17;;;;;;;8.82;5.93;;;22.80;85.10;;;;;;5053562;28;20029;-67
2022/06/19 02:56:43;;;;;;;7.03;5.32;;;22.80;85.20;;;;;;5066900;28;20034;-67
2022/06/19 02:59:08;;;;;;;8.57;5.68;;;22.80;85.30;;;;;;5059221;28;20025;-67
2022/06/19 03:01:34;;;;;;;8.73;5.32;;;22.70;85.30;;;;;;5068114;28;20036;-67
2022/06/19 03:03:59;;;;;;;6.90;5.65;;;22.70;85.40;;;;;;5056532;28;20029;-67
2022/06/19 03:06:25;;;;;;;7.65;5.75;;;22.80;85.60;;;;;;5052696;28;20090;-67
2022/06/19 03:08:50;;;;;;;8.23;5.88;;;22.80;85.60;;;;;;5059099;28;20135;-67
2022/06/19 03:11:16;;;;;;;7.43;5.57;;;22.80;85.70;;;;;;5052789;28;20171;-67
2022/06/19 03:13:41;;;;;;;7.90;5.90;;;22.80;85.70;;;;;;5063781;28;20060;-67
2022/06/19 03:16:09;;;;;;;10.15;5.90;;;22.80;85.80;;;;;;5072920;28;20049;-67
2022/06/19 03:18:38;;;;;;;6.55;5.82;;;22.80;85.90;;;;;;5067609;28;20072;-67
2022/06/19 03:21:04;;;;;;;6.63;5.47;;;22.80;86.10;;;;;;5052646;28;20036;-69
2022/06/19 03:23:30;;;;;;;8.88;5.93;;;22.80;86.10;;;;;;5060387;28;20039;-68
2022/06/19 03:25:56;;;;;;;6.90;5.47;;;22.80;86.20;;;;;;5071682;28;20695;-68
2022/06/19 03:28:21;;;;;;;7.68;5.93;;;22.80;86.30;;;;;;5068714;28;20027;-69
2022/06/19 03:30:51;;;;;;;7.68;5.43;;;22.90;86.40;;;;;;5064039;28;20025;-68
2022/06/19 03:33:17;;;;;;;8.50;5.82;;;22.80;86.30;;;;;;5068496;28;20021;-68
2022/06/19 03:35:42;;;;;;;7.13;5.80;;;22.90;86.40;;;;;;5060729;28;20063;-68
2022/06/19 03:38:08;;;;;;;6.57;5.85;;;22.90;86.40;;;;;;5065851;28;20021;-68
2022/06/19 03:40:33;;;;;;;8.70;5.82;;;23.00;86.50;;;;;;5062589;28;20029;-68
2022/06/19 03:42:59;;;;;;;6.00;5.40;;;23.00;86.60;;;;;;5075368;28;20055;-69
2022/06/19 03:45:24;;;;;;;10.80;5.82;;;23.00;86.80;;;;;;5062817;28;20035;-68
2022/06/19 03:47:50;;;;;;;8.43;5.28;;;23.00;86.80;;;;;;5062582;28;20066;-68
2022/06/19 03:50:18;;;;;;;7.20;6.35;;;23.00;86.80;;;;;;5052090;28;20067;-68
2022/06/19 03:52:44;;;;;;;8.75;5.57;;;23.00;86.80;;;;;;5056237;28;20502;-68
2022/06/19 03:55:09;;;;;;;6.95;5.97;;;23.10;86.90;;;;;;5052705;28;20029;-68
2022/06/19 03:57:35;;;;;;;7.68;5.68;;;23.10;86.90;;;;;;5057571;28;20047;-69
2022/06/19 04:00:00;;;;;;;9.98;6.15;;;23.10;86.70;;;;;;5054207;28;20044;-67
2022/06/19 04:02:26;;;;;;;6.78;6.10;;;23.20;86.80;;;;;;5054190;28;20488;-67
2022/06/19 04:04:51;;;;;;;8.75;5.93;;;23.20;86.70;;;;;;5072101;28;20046;-67
2022/06/19 04:07:17;;;;;;;7.40;5.90;;;23.30;86.80;;;;;;5070375;28;20025;-68
2022/06/19 04:09:43;;;;;;;8.27;6.10;;;23.30;86.80;;;;;;5052260;28;20380;-68
2022/06/19 04:12:10;;;;;;;7.32;5.65;;;23.30;86.80;;;;;;5051726;28;20028;-68
2022/06/19 04:14:36;;;;;;;8.73;5.97;;;23.40;87.00;;;;;;5052369;28;20036;-68
2022/06/19 04:17:03;;;;;;;6.80;5.82;;;23.40;86.90;;;;;;5070882;28;20044;-68
2022/06/19 04:19:29;;;;;;;8.38;6.80;;;23.50;86.90;;;;;;5051601;28;20033;-68
2022/06/19 04:21:55;;;;;;;9.43;5.80;;;23.50;87.10;;;;;;5065785;28;20043;-68
2022/06/19 04:24:21;;;;;;;10.63;7.10;;;23.60;87.00;;;;;;5054616;28;20021;-68
2022/06/19 04:26:46;;;;;;;7.45;6.20;;;23.60;86.90;;;;;;5051178;28;20109;-68
2022/06/19 04:29:13;;;;;;;7.25;5.90;;;23.70;86.70;;;;;;5054334;28;20459;-67
2022/06/19 04:31:39;;;;;;;8.95;6.55;;;23.70;86.60;;;;;;5051746;28;20059;-68
2022/06/19 04:34:05;;;;;;;7.70;6.40;;;23.70;86.50;;;;;;5052184;28;20037;-68
2022/06/19 04:36:31;;;;;;;8.30;5.88;;;23.80;86.30;;;;;;5051265;28;20017;-68
2022/06/19 04:38:57;;;;;;;10.18;6.53;;;23.90;86.30;;;;;;5055267;28;20029;-68
2022/06/19 04:41:28;;;;;;;8.48;6.13;;;23.90;86.00;;;;;;5067307;28;20480;-68
2022/06/19 04:43:55;;;;;;;9.93;6.25;;;23.90;86.30;;;;;;5060381;28;20507;-68
2022/06/19 04:46:21;;;;;;;8.23;6.03;;;24.00;85.70;;;;;;5064037;28;20033;-68
2022/06/19 04:48:48;;;;;;;9.95;6.20;;;24.00;85.70;;;;;;5057143;28;20036;-68
2022/06/19 04:51:14;;;;;;;7.82;6.20;;;24.10;85.50;;;;;;5051061;28;20380;-68
2022/06/19 04:53:40;;;;;;;7.78;6.63;;;24.10;85.40;;;;;;5063474;28;20020;-67
2022/06/19 04:56:07;;;;;;;8.70;6.65;;;24.20;85.30;;;;;;5071618;28;20040;-67
2022/06/19 04:58:33;;;;;;;10.57;6.75;;;24.20;85.20;;;;;;5054485;28;20055;-67
2022/06/19 05:01:01;;;;;;;8.98;6.68;;;24.30;85.20;;;;;;5049215;28;20144;-68
2022/06/19 05:03:27;;;;;;;9.10;6.97;;;24.30;85.10;;;;;;5054575;28;20028;-66
2022/06/19 05:05:53;;;;;;;9.00;6.75;;;24.40;84.90;;;;;;5049990;28;20052;-66
2022/06/19 05:08:19;;;;;;;7.95;7.15;;;24.50;84.90;;;;;;5049409;28;20052;-65
2022/06/19 05:10:45;;;;;;;8.60;6.78;;;24.50;84.70;;;;;;5049833;28;20037;-64
2022/06/19 05:13:16;;;;;;;9.02;6.90;;;24.50;84.50;;;;;;5049475;28;20024;-64
2022/06/19 05:15:42;;;;;;;8.38;7.05;;;24.70;84.70;;;;;;5051649;28;20132;-64
2022/06/19 05:18:08;;;;;;;9.23;6.43;;;24.70;84.20;;;;;;5050139;28;20106;-65
2022/06/19 05:20:34;;;;;;;10.05;6.88;;;24.80;84.30;;;;;;5048469;28;20037;-64
2022/06/19 05:22:59;;;;;;;11.32;7.65;;;24.80;84.00;;;;;;5048259;28;20391;-65
2022/06/19 05:25:25;;;;;;;10.27;6.80;;;24.90;83.60;;;;;;5050100;28;20032;-64
2022/06/19 05:27:50;;;;;;;9.18;7.00;;;24.90;83.20;;;;;;5052771;28;20039;-65
2022/06/19 05:30:16;;;;;;;8.45;6.93;;;25.00;83.60;;;;;;5053701;28;20030;-65
2022/06/19 05:32:41;;;;;;;9.10;7.15;;;25.10;83.30;;;;;;5053737;28;20024;-64
2022/06/19 05:35:07;;;;;;;9.90;6.90;;;25.10;82.70;;;;;;5052950;28;20078;-65
2022/06/19 05:37:33;;;;;;;12.98;7.32;;;25.20;82.40;;;;;;5053498;28;20657;-64
2022/06/19 05:39:58;;;;;;;11.13;7.25;;;25.30;82.40;;;;;;5053121;28;20381;-64
2022/06/19 05:42:26;;;;;;;12.38;8.07;;;25.30;81.50;;;;;;5052709;28;20043;-64
2022/06/19 05:44:51;;;;;;;9.88;7.22;;;25.40;81.60;;;;;;5052510;28;20029;-64
2022/06/19 05:47:17;;;;;;;13.02;6.95;;;25.50;81.30;;;;;;5058562;28;20033;-64
2022/06/19 05:49:43;;;;;;;12.55;7.03;;;25.50;80.70;;;;;;5055369;28;20032;-64
2022/06/19 05:52:24;;;;;;;10.07;6.95;;;25.60;80.50;;;;;;5053535;28;20028;-64
2022/06/19 05:54:52;;;;;;;11.90;6.63;;;25.70;80.30;;;;;;5052211;28;20060;-66
2022/06/19 05:57:18;;;;;;;13.32;6.75;;;25.70;80.20;;;;;;5052062;28;20090;-64
2022/06/19 05:59:44;;;;;;;17.20;7.10;;;25.80;79.40;;;;;;5056713;28;20040;-65
2022/06/19 06:02:14;;;;;;;9.07;7.05;;;25.90;79.20;;;;;;5052924;28;20098;-64
2022/06/19 06:04:39;;;;;;;7.32;6.25;;;25.90;78.60;;;;;;5051769;28;20024;-65
2022/06/19 06:07:07;;;;;;;12.95;6.55;;;26.00;78.00;;;;;;5051929;28;20033;-65
2022/06/19 06:09:34;;;;;;;11.68;7.00;;;26.10;77.50;;;;;;5051235;28;20044;-64
2022/06/19 06:11:59;;;;;;;11.18;6.65;;;26.20;77.40;;;;;;5052933;28;20383;-64
2022/06/19 06:14:25;;;;;;;10.45;7.13;;;26.30;77.40;;;;;;5055093;28;20029;-64
2022/06/19 06:16:50;;;;;;;11.88;6.50;;;26.30;77.20;;;;;;5052209;28;20035;-65
2022/06/19 06:19:16;;;;;;;9.85;6.45;;;26.40;76.50;;;;;;5051663;28;20025;-64
2022/06/19 06:21:42;;;;;;;9.68;6.50;;;26.50;76.10;;;;;;5053320;28;21603;-64
2022/06/19 06:24:08;;;;;;;13.77;6.75;;;26.60;75.90;;;;;;5053005;28;20020;-64
2022/06/19 06:26:34;;;;;;;7.70;5.63;;;26.70;75.40;;;;;;5052916;28;20036;-65
2022/06/19 06:29:00;;;;;;;15.38;6.20;;;26.70;75.30;;;;;;5053052;28;20028;-65
2022/06/19 06:31:26;;;;;;;11.07;6.40;;;26.80;74.80;;;;;;5057435;28;20111;-66
2022/06/19 06:33:52;;;;;;;11.45;6.95;;;26.90;74.20;;;;;;5052658;28;20044;-62
2022/06/19 06:36:18;;;;;;;10.20;6.70;;;27.00;72.00;;;;;;5052306;28;20032;-64
2022/06/19 06:38:44;;;;;;;10.40;6.10;;;27.10;72.20;;;;;;5053140;28;20056;-64
2022/06/19 06:41:12;;;;;;;10.00;5.78;;;27.20;72.20;;;;;;5050837;28;20482;-64
2022/06/19 06:43:40;;;;;;;9.52;6.32;;;27.30;72.10;;;;;;5052324;28;20020;-64
2022/06/19 06:46:12;;;;;;;10.15;6.20;;;27.40;71.70;;;;;;5050692;28;20115;-64
2022/06/19 06:48:39;;;;;;;9.98;5.93;;;27.50;72.00;;;;;;5051550;28;20056;-64
2022/06/19 06:51:06;;;;;;;8.68;5.97;;;27.60;71.20;;;;;;5052146;28;20071;-64
2022/06/19 06:53:33;;;;;;;10.02;6.15;;;27.70;71.30;;;;;;5051650;28;20095;-64
2022/06/19 06:55:58;;;;;;;11.73;6.45;;;27.80;70.80;;;;;;5050571;28;20044;-64
2022/06/19 06:58:24;;;;;;;15.00;6.10;;;27.90;70.70;;;;;;5052955;28;20028;-64
2022/06/19 07:00:50;;;;;;;9.85;5.97;;;28.00;70.50;;;;;;5049837;28;20044;-64
2022/06/19 07:03:16;;;;;;;10.93;6.28;;;28.00;70.20;;;;;;5050607;28;20114;-64
2022/06/19 07:05:41;;;;;;;9.55;5.80;;;28.10;69.80;;;;;;5049612;28;20035;-64
2022/06/19 07:08:10;;;;;;;10.68;6.78;;;28.10;69.60;;;;;;5050931;28;20133;-64
2022/06/19 07:10:35;;;;;;;11.60;6.45;;;28.30;69.40;;;;;;5049674;28;20935;-65
2022/06/19 07:13:01;;;;;;;10.15;5.53;;;28.30;68.60;;;;;;5053930;28;20472;-65
2022/06/19 07:15:27;;;;;;;8.90;5.32;;;28.40;68.00;;;;;;5050426;28;20035;-65
2022/06/19 07:17:52;;;;;;;14.20;8.57;;;28.50;67.90;;;;;;5051691;28;20033;-66
2022/06/19 07:20:18;;;;;;;9.48;6.22;;;28.60;67.70;;;;;;5051250;28;20037;-66
2022/06/19 07:22:44;;;;;;;12.43;6.35;;;28.60;67.20;;;;;;5052577;28;20079;-66
2022/06/19 07:25:16;;;;;;;11.95;5.53;;;28.80;67.00;;;;;;5050559;28;20032;-65
2022/06/19 07:27:42;;;;;;;12.50;5.85;;;28.80;66.40;;;;;;5050830;28;20059;-65
2022/06/19 07:30:10;;;;;;;10.90;5.78;;;28.90;66.10;;;;;;5051535;28;20028;-65
2022/06/19 07:32:35;;;;;;;15.05;6.15;;;29.00;65.50;;;;;;5056873;28;20586;-65
2022/06/19 07:35:01;;;;;;;8.15;5.32;;;29.00;65.20;;;;;;5049947;28;20029;-65
2022/06/19 07:37:26;;;;;;;11.50;5.07;;;29.20;65.30;;;;;;5051442;28;20060;-65
2022/06/19 07:39:52;;;;;;;11.98;6.40;;;29.20;65.10;;;;;;5050485;28;20024;-65
2022/06/19 07:42:17;;;;;;;12.25;5.53;;;29.40;65.60;;;;;;5051088;28;20102;-66
2022/06/19 07:44:43;;;;;;;9.60;5.05;;;29.40;64.60;;;;;;5050430;28;20064;-66
2022/06/19 07:50:11;;;;;;;8.90;4.90;;;29.70;63.90;;;;;;5058306;28;20055;-66
2022/06/19 07:52:38;;;;;;;11.98;4.68;;;29.70;63.40;;;;;;5055072;28;20036;-64
2022/06/19 07:55:04;;;;;;;10.52;4.97;;;29.80;63.10;;;;;;5048995;28;20324;-64
2022/06/19 07:57:30;;;;;;;9.13;4.22;;;29.90;62.50;;;;;;5053385;28;20036;-64
2022/06/19 07:59:56;;;;;;;7.10;4.38;;;30.00;62.10;;;;;;5048503;28;20123;-64
2022/06/19 08:02:24;;;;;;;9.43;4.28;;;30.10;61.80;;;;;;5052178;28;20060;-64
2022/06/19 08:04:50;;;;;;;7.75;4.22;;;30.20;61.60;;;;;;5056155;28;20029;-64
2022/06/19 08:07:16;;;;;;;9.57;5.13;;;30.30;60.80;;;;;;5051319;28;20032;-65
2022/06/19 08:09:42;;;;;;;7.47;3.97;;;30.40;60.90;;;;;;5057184;28;20039;-64
2022/06/19 08:12:09;;;;;;;7.75;4.30;;;30.50;60.90;;;;;;5053774;28;20021;-64
2022/06/19 08:14:35;;;;;;;9.73;4.88;;;30.60;60.30;;;;;;5071405;28;20501;-64
2022/06/19 08:17:00;;;;;;;11.68;5.18;;;30.70;60.10;;;;;;5049298;28;20526;-63
2022/06/19 08:19:26;;;;;;;12.77;4.25;;;30.80;59.70;;;;;;5049549;28;20028;-62
2022/06/19 08:21:51;;;;;;;7.10;4.18;;;30.90;59.20;;;;;;5048826;28;20029;-64
2022/06/19 08:24:17;;;;;;;8.18;3.90;;;31.00;58.70;;;;;;5051349;28;20479;-64
2022/06/19 08:26:43;;;;;;;10.45;4.28;;;31.10;58.40;;;;;;5053928;28;20033;-65
2022/06/19 08:29:09;;;;;;;11.10;3.95;;;31.10;58.00;;;;;;5050058;28;20035;-66
2022/06/19 08:31:35;;;;;;;10.63;3.97;;;31.20;57.30;;;;;;5049500;28;20507;-65
2022/06/19 08:34:00;;;;;;;10.95;4.13;;;31.30;56.70;;;;;;5050838;28;20037;-64
2022/06/19 08:36:27;;;;;;;10.73;3.80;;;31.30;56.30;;;;;;5062262;28;20412;-64
2022/06/19 08:38:56;;;;;;;7.03;3.50;;;31.40;56.20;;;;;;5059478;28;20665;-65
2022/06/19 08:41:46;;;;;;;11.10;3.88;;;31.50;56.00;;;;;;5063471;28;20041;-65
2022/06/19 08:44:23;;;;;;;9.90;3.72;;;31.60;55.60;;;;;;5068298;28;20487;-65
2022/06/19 08:46:57;;;;;;;9.60;4.78;;;31.70;55.30;;;;;;5070666;28;20033;-65
2022/06/19 08:49:32;;;;;;;8.43;4.28;;;31.70;55.30;;;;;;5051279;28;20392;-64
2022/06/19 08:52:32;;;;;;;10.65;5.00;;;31.80;55.00;;;;;;5051438;28;20041;-64
2022/06/19 08:55:00;;;;;;;12.15;4.85;;;31.90;55.20;;;;;;5054474;28;20020;-65
2022/06/19 08:57:40;;;;;;;14.38;5.05;;;32.10;54.80;;;;;;5067981;28;20020;-65
2022/06/19 09:00:18;;;;;;;11.07;4.40;;;32.10;54.40;;;;;;5058861;28;20033;-65
2022/06/19 09:02:51;;;;;;;11.20;4.72;;;32.20;54.40;;;;;;5068483;28;20081;-65
2022/06/19 09:05:44;;;;;;;12.13;4.43;;;32.30;54.10;;;;;;5067246;28;20488;-65
2022/06/19 09:08:31;;;;;;;13.15;5.22;;;32.40;53.80;;;;;;5057444;28;20056;-64
2022/06/19 09:11:15;;;;;;;13.45;4.38;;;32.50;53.90;;;;;;5052175;28;22715;-64
2022/06/19 09:13:56;;;;;;;8.25;4.40;;;32.60;53.90;;;;;;5054496;28;20032;-65
2022/06/19 09:16:40;;;;;;;11.40;5.40;;;32.60;53.00;;;;;;5053083;28;20071;-64
2022/06/19 09:19:37;;;;;;;11.98;4.40;;;32.60;51.60;;;;;;5053424;28;20040;-65
2022/06/19 09:22:12;;;;;;;10.60;4.38;;;32.70;52.00;;;;;;5019860;28;20058;-66
2022/06/19 09:24:48;;;;;;;13.45;4.95;;;32.70;51.60;;;;;;5050766;28;20032;-66
2022/06/19 09:27:17;;;;;;;11.07;4.35;;;32.70;51.10;;;;;;5061657;28;20044;-66
2022/06/19 09:30:04;;;;;;;11.98;4.60;;;32.80;50.90;;;;;;5054478;28;20040;-66
2022/06/19 09:32:41;;;;;;;16.70;5.70;;;32.80;51.50;;;;;;5053483;28;20792;-65
2022/06/19 09:35:13;;;;;;;14.27;5.25;;;32.90;50.90;;;;;;5058276;28;20128;-65
2022/06/19 09:37:45;;;;;;;7.25;3.65;;;32.90;51.10;;;;;;5053901;28;20039;-66
2022/06/19 09:40:23;;;;;;;13.60;5.13;;;33.00;51.00;;;;;;5052112;28;20095;-66
2022/06/19 09:43:01;;;;;;;14.63;4.82;;;33.00;49.90;;;;;;5053769;28;20071;-67
2022/06/19 09:45:39;;;;;;;15.10;5.65;;;33.00;49.20;;;;;;5051795;28;20040;-66
2022/06/19 09:48:37;;;;;;;16.95;5.68;;;33.10;48.90;;;;;;5053657;28;20032;-66
2022/06/19 09:51:15;;;;;;;14.85;5.90;;;33.10;48.40;;;;;;5047505;28;20064;-67
2022/06/19 09:53:58;;;;;;;14.00;6.15;;;33.20;48.60;;;;;;5052737;28;20032;-68
2022/06/19 09:56:46;;;;;;;14.10;6.28;;;33.30;48.50;;;;;;5056478;28;20441;-67
2022/06/19 09:59:15;;;;;;;22.05;6.10;;;33.30;48.40;;;;;;5054452;28;20111;-67
2022/06/19 10:01:44;;;;;;;17.60;5.65;;;33.40;48.30;;;;;;5052959;28;20144;-67
2022/06/19 10:04:21;;;;;;;19.85;5.90;;;33.50;48.20;;;;;;5058600;28;20043;-67
2022/06/19 10:06:58;;;;;;;17.17;6.05;;;33.60;48.00;;;;;;5054333;28;20113;-67
2022/06/19 10:09:35;;;;;;;15.60;5.80;;;33.60;47.80;;;;;;5062742;28;20044;-67
2022/06/19 10:12:03;;;;;;;15.18;7.00;;;33.60;47.80;;;;;;5072067;28;20024;-67
2022/06/19 10:14:35;;;;;;;15.43;6.00;;;33.70;47.70;;;;;;5059823;28;20059;-67
2022/06/19 10:17:18;;;;;;;16.02;5.30;;;33.90;48.00;;;;;;5094234;28;20024;-66
2022/06/19 10:19:48;;;;;;;14.48;4.28;;;33.90;47.20;;;;;;5057145;28;20032;-67
2022/06/19 10:22:51;;;;;;;13.50;4.32;;;33.90;46.40;;;;;;5051734;28;20060;-67
2022/06/19 10:25:32;;;;;;;8.90;3.88;;;34.00;46.60;;;;;;5052743;28;20028;-67
2022/06/19 10:28:03;;;;;;;13.45;4.10;;;34.00;46.30;;;;;;5052200;28;20579;-67
2022/06/19 10:30:38;;;;;;;12.18;4.43;;;34.00;46.20;;;;;;5052943;28;20017;-67
2022/06/19 10:33:16;;;;;;;14.77;4.63;;;34.00;45.90;;;;;;5052613;28;20048;-67
2022/06/19 10:36:00;;;;;;;16.00;4.47;;;34.00;45.80;;;;;;5052997;28;20124;-67
2022/06/19 10:38:54;;;;;;;10.90;4.35;;;34.10;46.50;;;;;;5052136;28;20044;-67
2022/06/19 10:44:43;;;;;;;12.25;4.45;;;34.00;46.20;;;;;;5051225;28;20040;-67
2022/06/19 10:47:22;;;;;;;10.82;4.57;;;34.10;46.30;;;;;;5052340;28;20075;-67
2022/06/19 10:50:07;;;;;;;9.23;4.20;;;34.20;46.10;;;;;;5052323;28;20051;-68
2022/06/19 10:52:42;;;;;;;11.52;4.85;;;34.20;45.60;;;;;;5051879;28;20043;-67
2022/06/19 10:55:58;;;;;;;12.35;4.28;;;34.30;45.80;;;;;;5051594;28;20024;-66
2022/06/19 10:58:26;;;;;;;13.07;4.68;;;34.40;46.10;;;;;;5032197;28;20116;-67
2022/06/19 11:00:59;;;;;;;13.10;4.25;;;34.40;45.50;;;;;;5051734;28;20749;-65
2022/06/19 11:06:50;;;;;;;13.32;4.60;;;34.50;45.90;;;;;;5051490;28;20464;-65
2022/06/19 11:09:35;;;;;;;11.02;4.28;;;34.60;45.50;;;;;;5056408;28;20078;-66
2022/06/19 11:12:06;;;;;;;11.25;4.05;;;34.70;45.50;;;;;;5051617;28;20115;-65
2022/06/19 11:14:43;;;;;;;13.18;4.40;;;34.70;45.50;;;;;;5050850;28;20074;-66
2022/06/19 11:17:15;;;;;;;13.18;4.25;;;34.80;45.50;;;;;;5050615;28;20056;-67
2022/06/19 11:19:47;;;;;;;10.10;4.05;;;34.80;45.40;;;;;;5050932;28;20045;-67
2022/06/19 11:22:33;;;;;;;8.65;4.18;;;34.90;45.40;;;;;;5052571;28;20064;-69
2022/06/19 11:25:21;;;;;;;9.90;4.15;;;35.00;45.60;;;;;;5051762;28;20109;-68
2022/06/19 11:28:14;;;;;;;10.85;4.70;;;35.00;45.70;;;;;;5051523;28;20025;-67
2022/06/19 11:30:42;;;;;;;17.65;4.60;;;35.10;45.50;;;;;;5047219;28;20033;-67
2022/06/19 11:33:12;;;;;;;14.82;5.07;;;35.10;45.00;;;;;;5051043;28;20105;-67
2022/06/19 11:35:56;;;;;;;9.55;3.67;;;35.20;44.90;;;;;;5055570;28;20028;-68
2022/06/19 11:38:42;;;;;;;10.48;4.57;;;35.20;45.40;;;;;;5052005;28;20036;-68
2022/06/19 11:41:30;;;;;;;9.13;5.05;;;35.20;44.90;;;;;;5050306;28;20405;-68
2022/06/19 11:44:14;;;;;;;11.95;5.00;;;35.30;44.90;;;;;;5050972;28;20093;-67
2022/06/19 11:46:57;;;;;;;15.65;5.07;;;35.30;44.70;;;;;;5050413;28;20043;-67
2022/06/19 11:49:29;;;;;;;13.27;5.30;;;35.40;44.30;;;;;;5051332;28;20024;-69
2022/06/19 11:51:58;;;;;;;14.70;4.88;;;35.40;44.00;;;;;;5050211;28;20691;-68
2022/06/19 11:54:29;;;;;;;13.77;4.57;;;35.40;44.00;;;;;;5050046;28;20033;-68
2022/06/19 11:56:55;;;;;;;11.98;4.60;;;35.40;44.20;;;;;;5050476;28;20028;-66
2022/06/19 11:59:24;;;;;;;14.75;4.30;;;35.40;44.10;;;;;;5054639;28;20483;-66
2022/06/19 12:01:49;;;;;;;17.08;4.57;;;35.50;44.10;;;;;;5059459;28;20041;-68
2022/06/19 12:04:30;;;;;;;10.40;5.90;;;35.60;45.30;;;;;;5061408;28;20033;-66
2022/06/19 12:07:01;;;;;;;15.93;6.32;;;35.70;46.70;;;;;;5050120;28;20036;-68
2022/06/19 12:09:39;;;;;;;15.63;6.50;;;35.60;47.60;;;;;;5049218;28;20060;-67
2022/06/19 12:12:18;;;;;;;15.65;5.72;;;35.50;48.50;;;;;;5049867;28;20064;-67
2022/06/19 12:14:46;;;;;;;12.23;5.72;;;35.50;50.00;;;;;;5050427;28;20036;-67
2022/06/19 12:17:37;;;;;;;12.95;5.43;;;35.50;50.20;;;;;;5051079;28;20715;-68
2022/06/19 12:20:06;;;;;;;9.50;5.30;;;35.40;50.60;;;;;;5049868;28;20879;-68
2022/06/19 12:22:37;;;;;;;11.88;5.30;;;35.20;50.70;;;;;;5050429;28;20124;-68
2022/06/19 12:25:03;;;;;;;9.90;5.93;;;35.00;50.60;;;;;;5049558;28;22023;-68
2022/06/19 12:27:34;;;;;;;15.20;5.65;;;35.00;50.60;;;;;;5051293;28;20036;-67
2022/06/19 12:30:04;;;;;;;10.57;5.63;;;34.90;50.50;;;;;;5050836;28;20033;-67
2022/06/19 12:32:39;;;;;;;11.38;5.30;;;34.90;50.70;;;;;;5051282;28;20029;-68
2022/06/19 12:35:38;;;;;;;10.73;4.75;;;34.80;49.90;;;;;;5048872;28;20033;-67
2022/06/19 12:38:12;;;;;;;10.20;4.90;;;34.70;49.90;;;;;;5048183;28;20056;-68
2022/06/19 12:40:46;;;;;;;13.98;4.97;;;34.70;49.80;;;;;;5049762;28;20064;-68
2022/06/19 12:43:24;;;;;;;11.25;4.32;;;34.60;49.70;;;;;;5048402;28;20033;-68
2022/06/19 12:45:56;;;;;;;9.48;4.55;;;34.70;49.70;;;;;;5049593;28;20146;-68
2022/06/19 12:48:33;;;;;;;9.75;5.63;;;34.70;49.40;;;;;;5050128;28;20037;-67
2022/06/19 12:51:16;;;;;;;10.88;4.80;;;34.70;49.20;;;;;;5049458;28;20039;-67
2022/06/19 12:53:53;;;;;;;9.48;4.50;;;34.50;49.20;;;;;;5050076;28;20170;-66
2022/06/19 12:56:46;;;;;;;11.18;4.78;;;34.40;49.50;;;;;;5050928;28;20387;-67
2022/06/19 12:59:14;;;;;;;9.10;4.65;;;34.30;49.70;;;;;;5048986;28;20037;-67
2022/06/19 13:02:09;;;;;;;12.50;4.97;;;34.30;49.90;;;;;;5054354;28;20032;-67
2022/06/19 13:04:41;;;;;;;13.40;4.88;;;34.20;49.70;;;;;;5050282;28;20561;-67
2022/06/19 13:07:29;;;;;;;11.52;4.55;;;34.20;49.50;;;;;;5049788;28;20512;-68
2022/06/19 13:10:19;;;;;;;11.75;5.03;;;34.10;49.50;;;;;;5050424;28;20041;-67
2022/06/19 13:12:55;;;;;;;11.63;4.57;;;34.00;49.70;;;;;;5049868;28;20017;-67